createdAt,value
2017-07-04T00:02:11.560Z,6.23
2017-07-04T00:04:39.120Z,6.27
2017-07-04T00:07:06.675Z,6.37
2017-07-04T00:09:34.972Z,7.27
2017-07-04T00:12:02.535Z,7.23
2017-07-04T00:14:30.064Z,8.00
2017-07-04T00:16:58.365Z,7.13
2017-07-04T00:19:25.925Z,7.43
2017-07-04T00:21:53.455Z,7.07
2017-07-04T00:24:21.767Z,7.33
2017-07-04T00:26:49.291Z,6.57
2017-07-04T00:29:17.606Z,6.60
2017-07-04T00:31:45.139Z,6.13
2017-07-04T00:34:12.699Z,7.03
2017-07-04T00:36:41.002Z,6.70
2017-07-04T00:39:08.546Z,7.10
2017-07-04T00:41:36.086Z,7.43
2017-07-04T00:44:04.411Z,6.83
2017-07-04T00:46:31.944Z,7.30
2017-07-04T00:48:59.507Z,6.70
2017-07-04T00:51:27.058Z,7.10
2017-07-04T00:53:54.619Z,6.20
2017-07-04T00:56:22.157Z,6.40
2017-07-04T00:58:49.720Z,6.33
2017-07-04T01:01:18.019Z,6.97
2017-07-04T01:03:45.575Z,6.60
2017-07-04T01:06:13.103Z,7.03
2017-07-04T01:08:40.661Z,7.70
2017-07-04T01:11:08.190Z,6.60
2017-07-04T01:13:35.723Z,6.67
2017-07-04T01:16:03.295Z,6.87
2017-07-04T01:18:30.824Z,6.80
2017-07-04T01:20:59.143Z,5.93
2017-07-04T01:23:26.684Z,5.97
2017-07-04T01:25:54.248Z,7.10
2017-07-04T01:28:21.778Z,6.70
2017-07-04T01:30:50.114Z,6.93
2017-07-04T01:33:17.647Z,7.07
2017-07-04T01:35:45.211Z,6.97
2017-07-04T01:38:12.744Z,6.13
2017-07-04T01:40:40.308Z,6.70
2017-07-04T01:43:07.842Z,6.30
2017-07-04T01:45:35.403Z,7.60
2017-07-04T01:48:02.935Z,5.93
2017-07-04T01:50:30.490Z,7.57
2017-07-04T01:52:58.023Z,7.73
2017-07-04T01:55:25.588Z,7.20
2017-07-04T01:57:53.119Z,6.63
2017-07-04T02:00:20.681Z,7.33
2017-07-04T02:02:48.226Z,7.30
2017-07-04T02:05:15.758Z,6.57
2017-07-04T02:07:43.314Z,6.73
2017-07-04T02:10:16.449Z,6.27
2017-07-04T02:12:44.775Z,6.77
2017-07-04T02:15:12.306Z,6.70
2017-07-04T02:17:39.865Z,6.97
2017-07-04T02:20:07.401Z,7.10
2017-07-04T02:22:35.719Z,6.70
2017-07-04T02:25:03.246Z,6.00
2017-07-04T02:27:30.801Z,6.20
2017-07-04T02:29:58.352Z,5.80
2017-07-04T02:32:26.674Z,6.37
2017-07-04T02:34:54.209Z,7.00
2017-07-04T02:37:21.771Z,7.50
2017-07-04T02:39:49.307Z,6.57
2017-07-04T02:42:17.635Z,7.50
2017-07-04T02:44:45.158Z,6.13
2017-07-04T02:47:12.718Z,6.60
2017-07-04T02:49:40.255Z,6.43
2017-07-04T02:52:08.577Z,6.20
2017-07-04T02:54:36.115Z,6.37
2017-07-04T02:57:03.644Z,6.23
2017-07-04T02:59:31.206Z,6.03
2017-07-04T03:01:58.747Z,7.20
2017-07-04T03:04:26.302Z,6.57
2017-07-04T03:06:54.586Z,7.40
2017-07-04T03:09:22.140Z,6.43
2017-07-04T03:11:49.672Z,6.80
2017-07-04T03:14:17.237Z,7.10
2017-07-04T03:16:44.775Z,7.70
2017-07-04T03:19:12.339Z,7.67
2017-07-04T03:21:39.875Z,6.53
2017-07-04T03:24:08.195Z,6.90
2017-07-04T03:26:35.727Z,7.17
2017-07-04T03:29:03.279Z,6.53
2017-07-04T03:31:31.571Z,8.50
2017-07-04T03:33:59.131Z,7.80
2017-07-04T03:36:26.663Z,7.63
2017-07-04T03:38:54.988Z,8.60
2017-07-04T03:41:22.524Z,8.40
2017-07-04T03:43:50.086Z,9.30
2017-07-04T03:46:17.616Z,8.57
2017-07-04T03:48:45.959Z,8.10
2017-07-04T03:51:13.487Z,9.20
2017-07-04T03:53:41.076Z,7.53
2017-07-04T03:56:08.610Z,8.83
2017-07-04T03:58:36.154Z,8.33
2017-07-04T04:01:03.718Z,7.23
2017-07-04T04:03:31.258Z,7.50
2017-07-04T04:05:59.589Z,8.00
2017-07-04T04:08:27.139Z,7.67
2017-07-04T04:10:54.697Z,8.83
2017-07-04T04:13:22.236Z,8.10
2017-07-04T04:15:49.799Z,7.53
2017-07-04T04:18:17.331Z,8.00
2017-07-04T04:20:45.656Z,7.43
2017-07-04T04:23:13.186Z,7.37
2017-07-04T04:25:40.751Z,7.80
2017-07-04T04:28:08.291Z,7.93
2017-07-04T04:30:36.619Z,7.23
2017-07-04T04:33:04.155Z,8.27
2017-07-04T04:35:31.719Z,8.40
2017-07-04T04:37:59.255Z,7.90
2017-07-04T04:40:26.828Z,8.53
2017-07-04T04:42:54.362Z,8.67
2017-07-04T04:45:22.687Z,8.00
2017-07-04T04:47:50.232Z,8.67
2017-07-04T04:50:17.802Z,8.67
2017-07-04T04:52:45.342Z,7.67
2017-07-04T04:55:12.875Z,8.00
2017-07-04T04:57:41.203Z,8.80
2017-07-04T05:00:08.742Z,7.90
2017-07-04T05:02:36.299Z,9.80
2017-07-04T05:05:03.851Z,10.20
2017-07-04T05:07:31.417Z,8.97
2017-07-04T05:09:58.958Z,8.90
2017-07-04T05:12:27.287Z,9.17
2017-07-04T05:14:54.822Z,8.43
2017-07-04T05:17:23.732Z,10.20
2017-07-04T05:19:51.412Z,10.57
2017-07-04T05:22:20.291Z,8.53
2017-07-04T05:24:47.935Z,8.87
2017-07-04T05:27:15.494Z,8.93
2017-07-04T05:29:43.026Z,9.40
2017-07-04T05:32:11.359Z,8.40
2017-07-04T05:34:38.894Z,9.00
2017-07-04T05:37:06.457Z,9.30
2017-07-04T05:39:33.991Z,9.50
2017-07-04T05:42:01.551Z,9.50
2017-07-04T05:44:29.087Z,8.47
2017-07-04T05:46:57.426Z,10.30
2017-07-04T05:49:24.959Z,9.10
2017-07-04T05:51:52.490Z,10.20
2017-07-04T05:54:20.821Z,8.80
2017-07-04T05:56:48.355Z,8.73
2017-07-04T05:59:15.911Z,9.03
2017-07-04T06:01:43.452Z,8.23
2017-07-04T06:04:11.775Z,7.10
2017-07-04T06:06:39.308Z,7.53
2017-07-04T06:09:06.872Z,6.23
2017-07-04T06:11:34.405Z,6.90
2017-07-04T06:14:02.728Z,6.83
2017-07-04T06:16:30.266Z,5.70
2017-07-04T06:18:57.822Z,6.43
2017-07-04T06:21:25.358Z,6.50
2017-07-04T06:23:53.679Z,5.07
2017-07-04T06:26:21.208Z,4.80
2017-07-04T06:28:49.528Z,5.37
2017-07-04T06:31:17.055Z,5.67
2017-07-04T06:33:44.608Z,5.43
2017-07-04T06:36:12.149Z,6.03
2017-07-04T06:38:39.695Z,5.63
2017-07-04T06:41:07.223Z,5.30
2017-07-04T06:43:34.778Z,6.20
2017-07-04T06:46:02.318Z,6.07
2017-07-04T06:48:29.918Z,6.80
2017-07-04T06:50:57.430Z,7.57
2017-07-04T06:53:24.954Z,6.50
2017-07-04T06:55:52.507Z,7.60
2017-07-04T06:58:20.035Z,8.17
2017-07-04T07:00:47.599Z,7.30
2017-07-04T07:03:15.138Z,7.97
2017-07-04T07:05:42.702Z,8.30
2017-07-04T07:08:10.238Z,9.30
2017-07-04T07:10:37.798Z,8.80
2017-07-04T07:13:06.094Z,8.50
2017-07-04T07:15:33.651Z,7.00
2017-07-04T07:18:01.183Z,8.07
2017-07-04T07:20:29.506Z,7.57
2017-07-04T07:22:57.043Z,7.70
2017-07-04T07:25:24.596Z,7.53
2017-07-04T07:27:52.136Z,7.60
2017-07-04T07:30:20.463Z,6.87
2017-07-04T07:32:47.996Z,7.90
2017-07-04T07:35:15.547Z,8.33
2017-07-04T07:37:43.847Z,6.80
2017-07-04T07:40:11.410Z,7.43
2017-07-04T07:42:38.947Z,8.40
2017-07-04T07:45:07.243Z,8.03
2017-07-04T07:47:34.806Z,6.60
2017-07-04T07:50:02.335Z,8.10
2017-07-04T07:52:29.894Z,8.07
2017-07-04T07:54:58.199Z,7.80
2017-07-04T07:57:25.756Z,8.03
2017-07-04T07:59:53.288Z,8.33
2017-07-04T08:02:21.610Z,7.30
2017-07-04T08:04:49.147Z,8.17
2017-07-04T08:07:16.708Z,7.43
2017-07-04T08:09:44.239Z,8.23
2017-07-04T08:12:12.567Z,7.97
2017-07-04T08:14:40.101Z,8.00
2017-07-04T08:17:07.655Z,7.60
2017-07-04T08:19:35.191Z,7.00
2017-07-04T08:22:02.751Z,6.60
2017-07-04T08:24:31.046Z,6.17
2017-07-04T08:26:59.363Z,7.30
2017-07-04T08:29:26.894Z,7.13
2017-07-04T08:31:54.442Z,6.93
2017-07-04T08:34:22.743Z,7.63
2017-07-04T08:36:50.303Z,7.17
2017-07-04T08:39:17.842Z,6.93
2017-07-04T08:41:45.376Z,6.47
2017-07-04T08:44:12.930Z,5.63
2017-07-04T08:46:40.454Z,6.27
2017-07-04T08:49:08.007Z,5.40
2017-07-04T08:51:35.552Z,6.00
2017-07-04T08:54:03.111Z,5.70
2017-07-04T08:56:30.640Z,5.40
2017-07-04T08:58:58.204Z,5.80
2017-07-04T09:01:26.507Z,5.57
2017-07-04T09:03:54.067Z,5.63
2017-07-04T09:06:21.603Z,5.43
2017-07-04T09:08:49.940Z,5.80
2017-07-04T09:11:17.471Z,6.17
2017-07-04T09:13:45.030Z,5.10
2017-07-04T09:16:12.559Z,5.23
2017-07-04T09:18:40.897Z,5.60
2017-07-04T09:21:08.428Z,5.57
2017-07-04T09:23:35.991Z,5.07
2017-07-04T09:26:03.528Z,4.77
2017-07-04T09:28:31.079Z,5.47
2017-07-04T09:30:59.372Z,5.07
2017-07-04T09:33:26.930Z,5.57
2017-07-04T09:35:54.464Z,5.07
2017-07-04T09:38:22.799Z,5.40
2017-07-04T09:40:50.327Z,5.40
2017-07-04T09:43:17.861Z,5.03
2017-07-04T09:45:46.183Z,5.07
2017-07-04T09:48:13.716Z,5.17
2017-07-04T09:50:41.266Z,4.80
2017-07-04T09:53:09.563Z,4.97
2017-07-04T09:55:37.119Z,4.90
2017-07-04T09:58:04.651Z,4.90
2017-07-04T10:00:32.971Z,4.93
2017-07-04T10:03:00.498Z,5.63
2017-07-04T10:05:28.819Z,5.20
2017-07-04T10:07:56.347Z,4.87
2017-07-04T10:10:23.904Z,4.60
2017-07-04T10:12:51.433Z,5.10
2017-07-04T10:15:19.010Z,4.90
2017-07-04T10:17:47.320Z,4.60
2017-07-04T10:20:14.872Z,4.67
2017-07-04T10:22:42.405Z,5.00
2017-07-04T10:25:10.739Z,4.70
2017-07-04T10:27:38.272Z,4.67
2017-07-04T10:30:05.832Z,5.77
2017-07-04T10:32:33.360Z,5.10
2017-07-04T10:35:01.688Z,4.50
2017-07-04T10:37:29.219Z,4.53
2017-07-04T10:39:56.743Z,5.57
2017-07-04T10:42:24.299Z,4.97
2017-07-04T10:44:51.835Z,5.13
2017-07-04T10:47:19.392Z,5.07
2017-07-04T10:49:46.923Z,4.90
2017-07-04T10:52:14.482Z,5.13
2017-07-04T10:54:42.008Z,5.20
2017-07-04T10:57:10.335Z,4.77
2017-07-04T10:59:37.861Z,5.20
2017-07-04T11:02:06.183Z,4.70
2017-07-04T11:04:33.722Z,4.50
2017-07-04T11:07:01.279Z,4.63
2017-07-04T11:09:28.803Z,4.47
2017-07-04T11:11:56.368Z,4.23
2017-07-04T11:14:23.904Z,4.40
2017-07-04T11:16:51.459Z,4.47
2017-07-04T11:19:18.983Z,4.43
2017-07-04T11:21:46.536Z,4.67
2017-07-04T11:24:14.063Z,4.60
2017-07-04T11:26:42.390Z,4.83
2017-07-04T11:29:09.915Z,4.20
2017-07-04T11:31:37.475Z,4.83
2017-07-04T11:34:05.003Z,4.50
2017-07-04T11:36:32.534Z,4.50
2017-07-04T11:39:00.095Z,4.20
2017-07-04T11:41:27.628Z,4.33
2017-07-04T11:43:55.181Z,5.20
2017-07-04T11:46:22.715Z,4.50
2017-07-04T11:48:51.039Z,5.20
2017-07-04T11:51:18.570Z,4.90
2017-07-04T11:53:46.897Z,4.50
2017-07-04T11:56:14.435Z,3.93
2017-07-04T11:58:41.983Z,4.50
2017-07-04T12:01:09.522Z,4.00
2017-07-04T12:03:37.838Z,4.33
2017-07-04T12:06:05.372Z,4.40
2017-07-04T12:08:32.936Z,4.67
2017-07-04T12:11:00.474Z,4.03
2017-07-04T12:13:28.795Z,4.43
2017-07-04T12:15:56.328Z,4.70
2017-07-04T12:18:23.884Z,4.30
2017-07-04T12:20:51.425Z,4.20
2017-07-04T12:23:19.751Z,4.57
2017-07-04T12:25:47.280Z,4.70
2017-07-04T12:28:14.839Z,4.77
2017-07-04T12:30:42.376Z,4.60
2017-07-04T12:33:10.719Z,4.40
2017-07-04T12:35:38.251Z,4.50
2017-07-04T12:38:05.787Z,4.90
2017-07-04T12:40:33.347Z,4.70
2017-07-04T12:43:01.643Z,4.80
2017-07-04T12:45:29.198Z,4.30
2017-07-04T12:47:56.812Z,4.40
2017-07-04T12:50:24.365Z,5.10
2017-07-04T12:52:51.903Z,4.40
2017-07-04T12:55:19.459Z,4.40
2017-07-04T12:57:46.991Z,4.07
2017-07-04T13:00:14.551Z,4.47
2017-07-04T13:02:42.088Z,4.50
2017-07-04T13:05:10.415Z,4.37
2017-07-04T13:07:37.950Z,4.43
2017-07-04T13:10:05.507Z,5.00
2017-07-04T13:12:33.048Z,4.73
2017-07-04T13:15:01.365Z,4.67
2017-07-04T13:17:28.895Z,4.37
2017-07-04T13:19:57.212Z,4.37
2017-07-04T13:22:24.744Z,4.50
2017-07-04T13:24:52.299Z,4.50
2017-07-04T13:27:19.837Z,4.37
2017-07-04T13:29:48.167Z,4.00
2017-07-04T13:32:15.695Z,4.17
2017-07-04T13:34:43.229Z,4.37
2017-07-04T13:37:10.782Z,4.50
2017-07-04T13:39:38.316Z,4.50
2017-07-04T13:42:05.875Z,4.30
2017-07-04T13:44:33.421Z,4.17
2017-07-04T13:47:00.977Z,4.60
2017-07-04T13:49:28.507Z,4.30
2017-07-04T13:51:56.835Z,5.20
2017-07-04T13:54:24.375Z,4.23
2017-07-04T13:56:51.934Z,5.17
2017-07-04T13:59:19.464Z,4.47
2017-07-04T14:01:47.784Z,4.47
2017-07-04T14:04:15.307Z,4.13
2017-07-04T14:06:42.861Z,4.60
2017-07-04T14:09:10.391Z,4.27
2017-07-04T14:11:37.951Z,4.40
2017-07-04T14:14:05.475Z,3.90
2017-07-04T14:16:33.060Z,3.90
2017-07-04T14:19:00.592Z,4.17
2017-07-04T14:21:28.152Z,4.10
2017-07-04T14:23:55.683Z,4.10
2017-07-04T14:26:23.238Z,3.63
2017-07-04T14:28:50.772Z,4.40
2017-07-04T14:31:18.302Z,3.97
2017-07-04T14:33:45.859Z,5.47
2017-07-04T14:36:13.394Z,4.40
2017-07-04T14:38:40.949Z,4.77
2017-07-04T14:41:08.478Z,4.20
2017-07-04T14:43:36.791Z,4.13
2017-07-04T14:46:04.323Z,4.17
2017-07-04T14:48:32.650Z,3.70
2017-07-04T14:51:00.186Z,3.73
2017-07-04T14:53:27.739Z,4.10
2017-07-04T14:55:55.267Z,4.30
2017-07-04T14:58:23.587Z,3.93
2017-07-04T15:00:51.122Z,4.63
2017-07-04T15:03:18.679Z,3.77
2017-07-04T15:05:46.220Z,4.10
2017-07-04T15:08:13.831Z,4.60
2017-07-04T15:10:41.369Z,3.60
2017-07-04T15:13:08.924Z,3.50
2017-07-04T15:15:36.451Z,3.37
2017-07-04T15:18:04.006Z,4.00
2017-07-04T15:20:31.533Z,4.13
2017-07-04T15:22:59.088Z,3.60
2017-07-04T15:25:26.619Z,3.80
2017-07-04T15:27:54.159Z,3.77
2017-07-04T15:30:22.485Z,3.70
2017-07-04T15:32:50.025Z,3.57
2017-07-04T15:35:17.585Z,3.60
2017-07-04T15:37:45.115Z,3.63
2017-07-04T15:40:13.436Z,4.10
2017-07-04T15:42:40.978Z,3.80
2017-07-04T15:45:08.543Z,3.60
2017-07-04T15:47:36.092Z,3.77
2017-07-04T15:50:03.648Z,3.87
2017-07-04T15:52:31.944Z,3.83
2017-07-04T15:54:59.504Z,3.50
2017-07-04T15:57:27.028Z,3.20
2017-07-04T15:59:55.353Z,3.33
2017-07-04T16:02:22.887Z,3.30
2017-07-04T16:04:50.443Z,3.83
2017-07-04T16:07:18.738Z,3.23
2017-07-04T16:09:46.300Z,3.23
2017-07-04T16:12:13.836Z,4.20
2017-07-04T16:14:42.163Z,3.20
2017-07-04T16:17:09.711Z,3.93
2017-07-04T16:19:37.282Z,3.60
2017-07-04T16:22:04.806Z,3.20
2017-07-04T16:24:35.764Z,3.43
2017-07-04T16:27:03.328Z,3.20
2017-07-04T16:29:30.859Z,3.07
2017-07-04T16:31:58.410Z,3.60
2017-07-04T16:34:26.707Z,4.17
2017-07-04T16:36:54.277Z,3.70
2017-07-04T16:39:21.802Z,4.90
2017-07-04T16:41:50.127Z,4.37
2017-07-04T16:44:17.659Z,3.60
2017-07-04T16:46:45.220Z,4.60
2017-07-04T16:49:12.751Z,3.53
2017-07-04T16:51:40.308Z,3.30
2017-07-04T16:54:08.648Z,4.30
2017-07-04T16:56:36.207Z,3.13
2017-07-04T16:59:03.736Z,3.30
2017-07-04T17:01:31.300Z,4.23
2017-07-04T17:03:58.837Z,3.33
2017-07-04T17:06:27.156Z,3.87
2017-07-04T17:08:54.691Z,4.30
2017-07-04T17:11:22.243Z,3.97
2017-07-04T17:13:49.784Z,3.60
2017-07-04T17:16:18.105Z,4.40
2017-07-04T17:18:45.638Z,3.40
2017-07-04T17:21:13.963Z,3.63
2017-07-04T17:23:41.495Z,5.03
2017-07-04T17:26:09.025Z,3.50
2017-07-04T17:28:37.348Z,3.80
2017-07-04T17:31:04.889Z,4.23
2017-07-04T17:33:32.453Z,2.73
2017-07-04T17:35:59.984Z,4.20
2017-07-04T17:38:28.316Z,3.70
2017-07-04T17:40:55.855Z,3.17
2017-07-04T17:43:23.415Z,4.73
2017-07-04T17:45:50.951Z,3.80
2017-07-04T17:48:18.523Z,4.10
2017-07-04T17:50:46.071Z,4.60
2017-07-04T17:53:13.633Z,4.17
2017-07-04T17:55:41.173Z,4.00
2017-07-04T17:58:08.735Z,5.10
2017-07-04T18:00:37.041Z,4.43
2017-07-04T18:03:04.607Z,3.80
2017-07-04T18:05:32.167Z,4.97
2017-07-04T18:07:59.762Z,4.00
2017-07-04T18:10:27.324Z,3.33
2017-07-04T18:12:54.900Z,5.30
2017-07-04T18:15:22.447Z,4.03
2017-07-04T18:17:50.039Z,4.33
2017-07-04T18:20:17.591Z,5.83
2017-07-04T18:22:45.937Z,3.87
2017-07-04T18:25:13.519Z,3.73
2017-07-04T18:27:41.823Z,5.07
2017-07-04T18:30:09.380Z,3.70
2017-07-04T18:32:36.940Z,4.10
2017-07-04T18:35:04.523Z,5.23
2017-07-04T18:37:32.072Z,3.40
2017-07-04T18:39:59.642Z,3.97
2017-07-04T18:42:27.186Z,4.37
2017-07-04T18:44:54.750Z,3.30
2017-07-04T18:47:22.312Z,4.30
2017-07-04T18:49:49.879Z,4.90
2017-07-04T18:52:17.420Z,3.40
2017-07-04T18:54:45.006Z,4.27
2017-07-04T18:57:12.544Z,4.37
2017-07-04T18:59:40.132Z,3.60
2017-07-04T19:02:07.683Z,4.53
2017-07-04T19:04:35.265Z,4.93
2017-07-04T19:07:02.809Z,4.07
2017-07-04T19:09:30.373Z,5.13
2017-07-04T19:11:57.915Z,5.13
2017-07-04T19:14:25.494Z,4.50
2017-07-04T19:16:53.033Z,5.00
2017-07-04T19:19:20.595Z,4.47
2017-07-04T19:21:48.164Z,3.60
2017-07-04T19:24:15.708Z,5.13
2017-07-04T19:26:43.275Z,4.60
2017-07-04T19:29:10.815Z,3.47
2017-07-04T19:31:38.388Z,5.03
2017-07-04T19:34:05.955Z,4.47
2017-07-04T19:36:33.515Z,3.93
2017-07-04T19:39:01.055Z,5.03
2017-07-04T19:41:28.612Z,5.10
2017-07-04T19:43:56.150Z,4.17
2017-07-04T19:46:24.483Z,5.20
2017-07-04T19:48:52.035Z,4.07
2017-07-04T19:51:19.606Z,4.27
2017-07-04T19:53:47.157Z,5.73
2017-07-04T19:56:14.731Z,3.90
2017-07-04T19:58:42.313Z,3.73
2017-07-04T20:01:09.885Z,6.63
2017-07-04T20:03:38.207Z,4.57
2017-07-04T20:06:05.818Z,4.50
2017-07-04T20:08:33.364Z,5.33
2017-07-04T20:11:00.995Z,3.70
2017-07-04T20:13:28.561Z,4.57
2017-07-04T20:15:56.169Z,5.33
2017-07-04T20:18:24.830Z,4.27
2017-07-04T20:20:52.474Z,4.40
2017-07-04T20:23:20.079Z,5.57
2017-07-04T20:25:48.416Z,4.20
2017-07-04T20:28:16.018Z,4.90
2017-07-04T20:30:44.356Z,5.27
2017-07-04T20:33:11.939Z,5.47
2017-07-04T20:35:39.711Z,5.07
2017-07-04T20:38:07.737Z,5.60
2017-07-04T20:40:35.640Z,4.47
2017-07-04T20:43:03.291Z,5.07
2017-07-04T20:45:30.828Z,4.67
2017-07-04T20:47:58.416Z,4.27
2017-07-04T20:53:04.805Z,4.07
2017-07-04T20:55:32.343Z,5.40
2017-07-04T20:57:59.915Z,4.53
2017-07-04T21:00:27.464Z,4.63
2017-07-04T21:02:55.026Z,5.60
2017-07-04T21:05:22.579Z,4.63
2017-07-04T21:07:50.198Z,3.93
2017-07-04T21:10:17.767Z,5.80
2017-07-04T21:12:45.315Z,3.90
2017-07-04T21:15:12.905Z,4.53
2017-07-04T21:17:40.432Z,5.33
2017-07-04T21:20:08.002Z,4.40
2017-07-04T21:22:35.551Z,4.93
2017-07-04T21:25:03.876Z,5.50
2017-07-04T21:27:31.421Z,5.47
2017-07-04T21:29:58.978Z,4.60
2017-07-04T21:32:26.537Z,5.43
2017-07-04T21:34:54.098Z,4.77
2017-07-04T21:37:21.639Z,5.20
2017-07-04T21:39:49.203Z,5.80
2017-07-04T21:42:16.750Z,4.37
2017-07-04T21:44:44.304Z,5.40
2017-07-04T21:47:11.847Z,6.37
2017-07-04T21:49:39.419Z,4.97
2017-07-04T21:52:06.956Z,4.77
2017-07-04T21:54:34.512Z,5.07
2017-07-04T21:57:02.048Z,4.50
2017-07-04T21:59:29.619Z,5.10
2017-07-04T22:01:57.202Z,5.40
2017-07-04T22:04:24.771Z,4.23
2017-07-04T22:06:52.312Z,4.90
2017-07-04T22:09:19.847Z,5.13
2017-07-04T22:11:47.415Z,4.10
2017-07-04T22:14:14.956Z,4.77
2017-07-04T22:16:42.521Z,4.90
2017-07-04T22:19:10.055Z,3.83
2017-07-04T22:21:37.620Z,5.23
2017-07-04T22:24:05.923Z,4.70
2017-07-04T22:26:33.483Z,3.73
2017-07-04T22:29:01.023Z,5.27
2017-07-04T22:50:50.300Z,5.50
2017-07-04T22:53:17.831Z,4.60
2017-07-04T22:55:45.369Z,5.50
2017-07-04T22:58:12.929Z,5.10
2017-07-04T23:00:40.471Z,5.20
2017-07-04T23:03:08.041Z,5.60
2017-07-04T23:05:35.575Z,4.37
2017-07-04T23:08:03.131Z,5.80
2017-07-04T23:10:30.667Z,5.87
2017-07-04T23:12:58.830Z,5.13
2017-07-04T23:15:26.368Z,5.50
2017-07-04T23:17:53.932Z,4.70
2017-07-04T23:20:21.471Z,5.00
2017-07-04T23:22:49.023Z,5.20
2017-07-04T23:25:16.567Z,5.10
2017-07-04T23:27:44.128Z,4.77
2017-07-04T23:30:11.659Z,5.03
2017-07-04T23:32:39.999Z,5.20
2017-07-04T23:35:07.531Z,4.90
2017-07-04T23:37:35.092Z,4.57
2017-07-04T23:40:02.647Z,4.67
2017-07-04T23:42:30.210Z,5.07
2017-07-04T23:44:57.744Z,5.30
2017-07-04T23:47:26.055Z,4.93
2017-07-04T23:49:53.612Z,4.90
2017-07-04T23:52:21.155Z,5.10
2017-07-04T23:54:48.727Z,5.37
2017-07-04T23:57:16.263Z,5.23
2017-07-04T23:59:44.591Z,5.37
